sensor_id;sensor_type;location;lat;lon;timestamp;P1;durP1;ratioP1;P2;durP2;ratioP2
6614;SDS011;3343;42.896;23.912;2023-05-06T00:00:56;8.13;;;4.27;;
6614;SDS011;3343;42.896;23.912;2023-05-06T00:03:23;6.60;;;3.93;;
6614;SDS011;3343;42.896;23.912;2023-05-06T00:05:50;4.87;;;3.93;;
6614;SDS011;3343;42.896;23.912;2023-05-06T00:08:18;4.93;;;3.33;;
6614;SDS011;3343;42.896;23.912;2023-05-06T00:10:45;7.23;;;3.63;;
6614;SDS011;3343;42.896;23.912;2023-05-06T00:13:12;6.87;;;3.43;;
6614;SDS011;3343;42.896;23.912;2023-05-06T00:15:40;5.47;;;3.70;;
6614;SDS011;3343;42.896;23.912;2023-05-06T00:18:07;6.33;;;3.87;;
6614;SDS011;3343;42.896;23.912;2023-05-06T00:20:34;5.53;;;3.57;;
6614;SDS011;3343;42.896;23.912;2023-05-06T00:23:00;5.10;;;3.50;;
6614;SDS011;3343;42.896;23.912;2023-05-06T00:25:29;4.23;;;3.30;;
6614;SDS011;3343;42.896;23.912;2023-05-06T00:27:55;5.73;;;3.77;;
6614;SDS011;3343;42.896;23.912;2023-05-06T00:30:22;9.20;;;3.67;;
6614;SDS011;3343;42.896;23.912;2023-05-06T00:32:50;5.63;;;3.63;;
6614;SDS011;3343;42.896;23.912;2023-05-06T00:35:18;9.50;;;4.20;;
6614;SDS011;3343;42.896;23.912;2023-05-06T00:37:45;6.73;;;3.93;;
6614;SDS011;3343;42.896;23.912;2023-05-06T00:40:16;5.37;;;2.90;;
6614;SDS011;3343;42.896;23.912;2023-05-06T00:42:45;6.80;;;3.63;;
6614;SDS011;3343;42.896;23.912;2023-05-06T00:45:12;9.73;;;4.33;;
6614;SDS011;3343;42.896;23.912;2023-05-06T00:47:38;7.07;;;3.53;;
6614;SDS011;3343;42.896;23.912;2023-05-06T00:50:06;5.93;;;4.07;;
6614;SDS011;3343;42.896;23.912;2023-05-06T00:52:33;4.73;;;3.80;;
6614;SDS011;3343;42.896;23.912;2023-05-06T00:55:00;7.00;;;3.70;;
6614;SDS011;3343;42.896;23.912;2023-05-06T00:57:28;8.67;;;3.90;;
6614;SDS011;3343;42.896;23.912;2023-05-06T00:59:56;5.87;;;3.43;;
6614;SDS011;3343;42.896;23.912;2023-05-06T01:02:23;5.93;;;4.03;;
6614;SDS011;3343;42.896;23.912;2023-05-06T01:04:50;8.50;;;3.67;;
6614;SDS011;3343;42.896;23.912;2023-05-06T01:07:22;7.83;;;3.33;;
6614;SDS011;3343;42.896;23.912;2023-05-06T01:09:59;6.13;;;3.00;;
6614;SDS011;3343;42.896;23.912;2023-05-06T01:12:33;4.67;;;3.60;;
6614;SDS011;3343;42.896;23.912;2023-05-06T01:15:10;4.50;;;3.10;;
6614;SDS011;3343;42.896;23.912;2023-05-06T01:17:42;5.63;;;4.10;;
6614;SDS011;3343;42.896;23.912;2023-05-06T01:20:11;7.50;;;3.70;;
6614;SDS011;3343;42.896;23.912;2023-05-06T01:22:39;6.07;;;3.23;;
6614;SDS011;3343;42.896;23.912;2023-05-06T01:25:16;4.73;;;3.27;;
6614;SDS011;3343;42.896;23.912;2023-05-06T01:27:43;8.27;;;4.00;;
6614;SDS011;3343;42.896;23.912;2023-05-06T01:30:10;7.53;;;3.60;;
6614;SDS011;3343;42.896;23.912;2023-05-06T01:32:39;4.93;;;3.20;;
6614;SDS011;3343;42.896;23.912;2023-05-06T01:35:16;5.77;;;3.50;;
6614;SDS011;3343;42.896;23.912;2023-05-06T01:37:51;4.43;;;2.93;;
6614;SDS011;3343;42.896;23.912;2023-05-06T01:40:27;5.20;;;3.77;;
6614;SDS011;3343;42.896;23.912;2023-05-06T01:42:56;5.97;;;3.30;;
6614;SDS011;3343;42.896;23.912;2023-05-06T01:45:27;5.60;;;2.87;;
6614;SDS011;3343;42.896;23.912;2023-05-06T01:47:56;4.77;;;3.77;;
6614;SDS011;3343;42.896;23.912;2023-05-06T01:50:24;5.10;;;3.53;;
6614;SDS011;3343;42.896;23.912;2023-05-06T01:52:57;7.27;;;3.33;;
6614;SDS011;3343;42.896;23.912;2023-05-06T01:55:25;5.50;;;3.17;;
6614;SDS011;3343;42.896;23.912;2023-05-06T01:57:53;5.50;;;2.93;;
6614;SDS011;3343;42.896;23.912;2023-05-06T02:00:21;6.03;;;3.47;;
6614;SDS011;3343;42.896;23.912;2023-05-06T02:02:50;5.10;;;3.23;;
6614;SDS011;3343;42.896;23.912;2023-05-06T02:05:17;4.97;;;3.20;;
6614;SDS011;3343;42.896;23.912;2023-05-06T02:07:44;4.90;;;3.80;;
6614;SDS011;3343;42.896;23.912;2023-05-06T02:10:11;5.67;;;3.30;;
6614;SDS011;3343;42.896;23.912;2023-05-06T02:12:38;10.37;;;3.83;;
6614;SDS011;3343;42.896;23.912;2023-05-06T02:15:07;5.53;;;3.47;;
6614;SDS011;3343;42.896;23.912;2023-05-06T02:17:34;4.13;;;2.67;;
6614;SDS011;3343;42.896;23.912;2023-05-06T02:20:02;4.63;;;3.07;;
6614;SDS011;3343;42.896;23.912;2023-05-06T02:22:30;5.47;;;3.37;;
6614;SDS011;3343;42.896;23.912;2023-05-06T02:24:57;6.77;;;3.37;;
6614;SDS011;3343;42.896;23.912;2023-05-06T02:27:24;5.00;;;3.33;;
6614;SDS011;3343;42.896;23.912;2023-05-06T02:29:50;7.97;;;3.30;;
6614;SDS011;3343;42.896;23.912;2023-05-06T02:32:19;4.30;;;3.43;;
6614;SDS011;3343;42.896;23.912;2023-05-06T02:34:45;4.70;;;3.47;;
6614;SDS011;3343;42.896;23.912;2023-05-06T02:37:12;5.83;;;4.00;;
6614;SDS011;3343;42.896;23.912;2023-05-06T02:39:39;8.33;;;3.77;;
6614;SDS011;3343;42.896;23.912;2023-05-06T02:42:06;5.87;;;3.93;;
6614;SDS011;3343;42.896;23.912;2023-05-06T02:44:33;6.73;;;4.00;;
6614;SDS011;3343;42.896;23.912;2023-05-06T02:47:00;5.33;;;3.70;;
6614;SDS011;3343;42.896;23.912;2023-05-06T02:49:28;8.10;;;4.60;;
6614;SDS011;3343;42.896;23.912;2023-05-06T02:51:54;6.53;;;3.83;;
6614;SDS011;3343;42.896;23.912;2023-05-06T02:54:21;7.13;;;4.97;;
6614;SDS011;3343;42.896;23.912;2023-05-06T02:56:48;7.47;;;4.43;;
6614;SDS011;3343;42.896;23.912;2023-05-06T02:59:15;6.83;;;3.93;;
6614;SDS011;3343;42.896;23.912;2023-05-06T03:01:42;6.63;;;4.27;;
6614;SDS011;3343;42.896;23.912;2023-05-06T03:04:09;6.17;;;4.00;;
6614;SDS011;3343;42.896;23.912;2023-05-06T03:06:37;6.33;;;3.90;;
6614;SDS011;3343;42.896;23.912;2023-05-06T03:09:04;8.37;;;4.73;;
6614;SDS011;3343;42.896;23.912;2023-05-06T03:11:31;10.17;;;4.83;;
6614;SDS011;3343;42.896;23.912;2023-05-06T03:13:58;7.93;;;4.67;;
6614;SDS011;3343;42.896;23.912;2023-05-06T03:16:25;7.37;;;4.40;;
6614;SDS011;3343;42.896;23.912;2023-05-06T03:18:52;9.30;;;5.00;;
6614;SDS011;3343;42.896;23.912;2023-05-06T03:21:19;8.03;;;4.33;;
6614;SDS011;3343;42.896;23.912;2023-05-06T03:23:47;8.23;;;4.93;;
6614;SDS011;3343;42.896;23.912;2023-05-06T03:26:13;8.87;;;4.80;;
6614;SDS011;3343;42.896;23.912;2023-05-06T03:28:41;5.63;;;4.07;;
6614;SDS011;3343;42.896;23.912;2023-05-06T03:31:09;7.57;;;4.60;;
6614;SDS011;3343;42.896;23.912;2023-05-06T03:33:36;8.57;;;5.07;;
6614;SDS011;3343;42.896;23.912;2023-05-06T03:36:03;5.93;;;3.87;;
6614;SDS011;3343;42.896;23.912;2023-05-06T03:38:30;5.40;;;4.07;;
6614;SDS011;3343;42.896;23.912;2023-05-06T03:40:58;5.53;;;3.90;;
6614;SDS011;3343;42.896;23.912;2023-05-06T03:43:25;5.83;;;4.20;;
6614;SDS011;3343;42.896;23.912;2023-05-06T03:45:52;6.20;;;4.43;;
6614;SDS011;3343;42.896;23.912;2023-05-06T03:48:19;5.60;;;4.07;;
6614;SDS011;3343;42.896;23.912;2023-05-06T03:50:46;7.87;;;4.27;;
6614;SDS011;3343;42.896;23.912;2023-05-06T03:53:13;7.13;;;4.23;;
6614;SDS011;3343;42.896;23.912;2023-05-06T03:55:39;10.87;;;5.77;;
6614;SDS011;3343;42.896;23.912;2023-05-06T03:58:09;7.40;;;4.20;;
6614;SDS011;3343;42.896;23.912;2023-05-06T04:00:36;6.33;;;4.40;;
6614;SDS011;3343;42.896;23.912;2023-05-06T04:03:03;6.67;;;4.40;;
6614;SDS011;3343;42.896;23.912;2023-05-06T04:05:30;6.97;;;3.87;;
6614;SDS011;3343;42.896;23.912;2023-05-06T04:07:57;8.20;;;4.50;;
6614;SDS011;3343;42.896;23.912;2023-05-06T04:10:24;7.70;;;4.40;;
6614;SDS011;3343;42.896;23.912;2023-05-06T04:12:50;6.80;;;3.90;;
6614;SDS011;3343;42.896;23.912;2023-05-06T04:15:19;8.50;;;4.07;;
6614;SDS011;3343;42.896;23.912;2023-05-06T04:17:46;9.27;;;4.07;;
6614;SDS011;3343;42.896;23.912;2023-05-06T04:20:13;8.23;;;4.60;;
6614;SDS011;3343;42.896;23.912;2023-05-06T04:22:40;9.60;;;5.77;;
6614;SDS011;3343;42.896;23.912;2023-05-06T04:25:07;12.07;;;6.40;;
6614;SDS011;3343;42.896;23.912;2023-05-06T04:27:35;10.40;;;6.23;;
6614;SDS011;3343;42.896;23.912;2023-05-06T04:30:01;12.53;;;6.97;;
6614;SDS011;3343;42.896;23.912;2023-05-06T04:32:30;10.70;;;6.23;;
6614;SDS011;3343;42.896;23.912;2023-05-06T04:34:58;11.23;;;7.03;;
6614;SDS011;3343;42.896;23.912;2023-05-06T04:37:25;12.47;;;6.90;;
6614;SDS011;3343;42.896;23.912;2023-05-06T04:39:52;15.97;;;8.50;;
6614;SDS011;3343;42.896;23.912;2023-05-06T04:42:20;21.43;;;13.47;;
6614;SDS011;3343;42.896;23.912;2023-05-06T04:44:46;18.37;;;10.30;;
6614;SDS011;3343;42.896;23.912;2023-05-06T04:47:14;12.27;;;8.63;;
6614;SDS011;3343;42.896;23.912;2023-05-06T04:49:42;17.33;;;8.93;;
6614;SDS011;3343;42.896;23.912;2023-05-06T04:52:09;18.87;;;9.47;;
6614;SDS011;3343;42.896;23.912;2023-05-06T04:54:36;13.47;;;8.93;;
6614;SDS011;3343;42.896;23.912;2023-05-06T04:57:03;12.20;;;7.30;;
6614;SDS011;3343;42.896;23.912;2023-05-06T04:59:30;17.47;;;10.10;;
6614;SDS011;3343;42.896;23.912;2023-05-06T05:01:57;17.23;;;9.57;;
6614;SDS011;3343;42.896;23.912;2023-05-06T05:04:23;22.87;;;11.30;;
6614;SDS011;3343;42.896;23.912;2023-05-06T05:06:52;19.60;;;10.90;;
6614;SDS011;3343;42.896;23.912;2023-05-06T05:09:19;19.80;;;10.87;;
6614;SDS011;3343;42.896;23.912;2023-05-06T05:11:46;19.00;;;10.27;;
6614;SDS011;3343;42.896;23.912;2023-05-06T05:14:13;17.33;;;11.07;;
6614;SDS011;3343;42.896;23.912;2023-05-06T05:16:40;18.07;;;9.47;;
6614;SDS011;3343;42.896;23.912;2023-05-06T05:19:07;17.67;;;9.87;;
6614;SDS011;3343;42.896;23.912;2023-05-06T05:21:34;18.43;;;10.33;;
6614;SDS011;3343;42.896;23.912;2023-05-06T05:24:02;21.37;;;10.30;;
6614;SDS011;3343;42.896;23.912;2023-05-06T05:26:29;20.33;;;9.50;;
6614;SDS011;3343;42.896;23.912;2023-05-06T05:28:56;18.80;;;10.57;;
6614;SDS011;3343;42.896;23.912;2023-05-06T05:31:23;19.23;;;10.83;;
6614;SDS011;3343;42.896;23.912;2023-05-06T05:33:49;15.87;;;9.83;;
6614;SDS011;3343;42.896;23.912;2023-05-06T05:36:16;58.43;;;26.63;;
6614;SDS011;3343;42.896;23.912;2023-05-06T05:38:43;23.87;;;13.23;;
6614;SDS011;3343;42.896;23.912;2023-05-06T05:41:13;25.97;;;11.93;;
6614;SDS011;3343;42.896;23.912;2023-05-06T05:43:40;19.13;;;11.97;;
6614;SDS011;3343;42.896;23.912;2023-05-06T05:46:07;26.60;;;15.60;;
6614;SDS011;3343;42.896;23.912;2023-05-06T05:48:34;33.67;;;19.07;;
6614;SDS011;3343;42.896;23.912;2023-05-06T05:51:02;21.80;;;13.20;;
6614;SDS011;3343;42.896;23.912;2023-05-06T05:53:29;19.03;;;11.80;;
6614;SDS011;3343;42.896;23.912;2023-05-06T05:55:56;25.10;;;12.60;;
6614;SDS011;3343;42.896;23.912;2023-05-06T05:58:24;16.37;;;10.40;;
6614;SDS011;3343;42.896;23.912;2023-05-06T06:00:51;14.73;;;10.37;;
6614;SDS011;3343;42.896;23.912;2023-05-06T06:03:18;18.83;;;10.87;;
6614;SDS011;3343;42.896;23.912;2023-05-06T06:05:45;24.83;;;13.57;;
6614;SDS011;3343;42.896;23.912;2023-05-06T06:08:15;18.93;;;11.47;;
6614;SDS011;3343;42.896;23.912;2023-05-06T06:10:43;19.00;;;11.70;;
6614;SDS011;3343;42.896;23.912;2023-05-06T06:13:10;20.43;;;11.83;;
6614;SDS011;3343;42.896;23.912;2023-05-06T06:15:38;18.43;;;11.93;;
6614;SDS011;3343;42.896;23.912;2023-05-06T06:18:05;19.47;;;11.77;;
6614;SDS011;3343;42.896;23.912;2023-05-06T06:20:33;22.20;;;13.43;;
6614;SDS011;3343;42.896;23.912;2023-05-06T06:23:00;19.97;;;12.37;;
6614;SDS011;3343;42.896;23.912;2023-05-06T06:25:27;16.07;;;10.57;;
6614;SDS011;3343;42.896;23.912;2023-05-06T06:27:54;24.40;;;13.47;;
6614;SDS011;3343;42.896;23.912;2023-05-06T06:30:22;21.03;;;13.43;;
6614;SDS011;3343;42.896;23.912;2023-05-06T06:32:51;17.43;;;10.40;;
6614;SDS011;3343;42.896;23.912;2023-05-06T06:35:20;16.43;;;11.27;;
6614;SDS011;3343;42.896;23.912;2023-05-06T06:37:47;17.30;;;11.17;;
6614;SDS011;3343;42.896;23.912;2023-05-06T06:40:16;18.10;;;10.83;;
6614;SDS011;3343;42.896;23.912;2023-05-06T06:42:43;18.20;;;10.90;;
6614;SDS011;3343;42.896;23.912;2023-05-06T06:45:10;17.67;;;10.97;;
6614;SDS011;3343;42.896;23.912;2023-05-06T06:47:38;19.60;;;10.73;;
6614;SDS011;3343;42.896;23.912;2023-05-06T06:50:08;13.03;;;8.23;;
6614;SDS011;3343;42.896;23.912;2023-05-06T06:52:35;10.47;;;6.40;;
6614;SDS011;3343;42.896;23.912;2023-05-06T06:55:02;8.27;;;5.63;;
6614;SDS011;3343;42.896;23.912;2023-05-06T06:57:29;8.23;;;5.23;;
6614;SDS011;3343;42.896;23.912;2023-05-06T06:59:56;9.60;;;5.17;;
6614;SDS011;3343;42.896;23.912;2023-05-06T07:02:23;9.30;;;5.70;;
6614;SDS011;3343;42.896;23.912;2023-05-06T07:04:50;8.90;;;5.77;;
6614;SDS011;3343;42.896;23.912;2023-05-06T07:07:18;15.27;;;6.57;;
6614;SDS011;3343;42.896;23.912;2023-05-06T07:09:45;10.40;;;6.53;;
6614;SDS011;3343;42.896;23.912;2023-05-06T07:12:11;8.30;;;6.13;;
6614;SDS011;3343;42.896;23.912;2023-05-06T07:14:38;6.90;;;4.63;;
6614;SDS011;3343;42.896;23.912;2023-05-06T07:17:05;6.27;;;4.20;;
6614;SDS011;3343;42.896;23.912;2023-05-06T07:19:32;8.73;;;4.40;;
6614;SDS011;3343;42.896;23.912;2023-05-06T07:21:59;6.17;;;4.07;;
6614;SDS011;3343;42.896;23.912;2023-05-06T07:24:28;6.57;;;4.40;;
6614;SDS011;3343;42.896;23.912;2023-05-06T07:26:55;8.40;;;4.13;;
6614;SDS011;3343;42.896;23.912;2023-05-06T07:29:22;10.43;;;6.27;;
6614;SDS011;3343;42.896;23.912;2023-05-06T07:31:50;14.57;;;8.70;;
6614;SDS011;3343;42.896;23.912;2023-05-06T07:34:17;19.97;;;10.20;;
6614;SDS011;3343;42.896;23.912;2023-05-06T07:36:45;20.60;;;12.30;;
6614;SDS011;3343;42.896;23.912;2023-05-06T07:39:12;26.83;;;13.03;;
6614;SDS011;3343;42.896;23.912;2023-05-06T07:41:40;25.77;;;13.07;;
6614;SDS011;3343;42.896;23.912;2023-05-06T07:44:07;17.30;;;11.63;;
6614;SDS011;3343;42.896;23.912;2023-05-06T07:46:34;20.53;;;12.30;;
6614;SDS011;3343;42.896;23.912;2023-05-06T07:49:01;17.83;;;11.20;;
6614;SDS011;3343;42.896;23.912;2023-05-06T07:51:28;19.90;;;11.47;;
6614;SDS011;3343;42.896;23.912;2023-05-06T07:53:56;18.87;;;9.97;;
6614;SDS011;3343;42.896;23.912;2023-05-06T07:56:23;13.70;;;8.33;;
6614;SDS011;3343;42.896;23.912;2023-05-06T07:58:51;8.93;;;6.10;;
6614;SDS011;3343;42.896;23.912;2023-05-06T08:01:17;9.80;;;5.53;;
6614;SDS011;3343;42.896;23.912;2023-05-06T08:03:44;7.72;;;4.72;;
6614;SDS011;3343;42.896;23.912;2023-05-06T08:06:11;8.53;;;6.23;;
6614;SDS011;3343;42.896;23.912;2023-05-06T08:08:38;11.87;;;6.83;;
6614;SDS011;3343;42.896;23.912;2023-05-06T08:11:06;10.27;;;7.00;;
6614;SDS011;3343;42.896;23.912;2023-05-06T08:13:33;10.97;;;7.50;;
6614;SDS011;3343;42.896;23.912;2023-05-06T08:16:01;15.43;;;8.30;;
6614;SDS011;3343;42.896;23.912;2023-05-06T08:18:28;11.37;;;7.07;;
6614;SDS011;3343;42.896;23.912;2023-05-06T08:20:55;12.40;;;7.73;;
6614;SDS011;3343;42.896;23.912;2023-05-06T08:23:22;8.30;;;5.97;;
6614;SDS011;3343;42.896;23.912;2023-05-06T08:25:48;9.00;;;5.13;;
6614;SDS011;3343;42.896;23.912;2023-05-06T08:28:16;5.93;;;4.93;;
6614;SDS011;3343;42.896;23.912;2023-05-06T08:30:42;9.00;;;5.50;;
6614;SDS011;3343;42.896;23.912;2023-05-06T08:33:13;8.93;;;4.95;;
6614;SDS011;3343;42.896;23.912;2023-05-06T08:35:39;8.02;;;4.70;;
6614;SDS011;3343;42.896;23.912;2023-05-06T08:38:06;9.23;;;5.25;;
6614;SDS011;3343;42.896;23.912;2023-05-06T08:40:33;12.00;;;5.00;;
6614;SDS011;3343;42.896;23.912;2023-05-06T08:43:10;6.75;;;4.47;;
6614;SDS011;3343;42.896;23.912;2023-05-06T08:45:38;9.00;;;4.75;;
6614;SDS011;3343;42.896;23.912;2023-05-06T08:48:05;7.55;;;5.28;;
6614;SDS011;3343;42.896;23.912;2023-05-06T08:50:33;5.47;;;4.43;;
6614;SDS011;3343;42.896;23.912;2023-05-06T08:53:04;9.05;;;4.78;;
6614;SDS011;3343;42.896;23.912;2023-05-06T08:55:31;7.75;;;3.88;;
6614;SDS011;3343;42.896;23.912;2023-05-06T08:57:59;5.78;;;3.58;;
6614;SDS011;3343;42.896;23.912;2023-05-06T09:00:26;5.47;;;3.80;;
6614;SDS011;3343;42.896;23.912;2023-05-06T09:02:53;5.93;;;3.47;;
6614;SDS011;3343;42.896;23.912;2023-05-06T09:05:20;5.45;;;3.65;;
6614;SDS011;3343;42.896;23.912;2023-05-06T09:07:48;5.20;;;3.55;;
6614;SDS011;3343;42.896;23.912;2023-05-06T09:10:15;5.78;;;4.07;;
6614;SDS011;3343;42.896;23.912;2023-05-06T09:12:43;9.93;;;3.85;;
6614;SDS011;3343;42.896;23.912;2023-05-06T09:15:10;4.70;;;3.47;;
6614;SDS011;3343;42.896;23.912;2023-05-06T09:17:37;9.05;;;3.95;;
6614;SDS011;3343;42.896;23.912;2023-05-06T09:20:04;6.93;;;3.80;;
6614;SDS011;3343;42.896;23.912;2023-05-06T09:22:36;5.30;;;3.45;;
6614;SDS011;3343;42.896;23.912;2023-05-06T09:25:06;3.55;;;3.22;;
6614;SDS011;3343;42.896;23.912;2023-05-06T09:27:33;4.80;;;3.47;;
6614;SDS011;3343;42.896;23.912;2023-05-06T09:30:02;4.13;;;3.17;;
6614;SDS011;3343;42.896;23.912;2023-05-06T09:32:30;7.60;;;3.65;;
6614;SDS011;3343;42.896;23.912;2023-05-06T09:34:57;3.95;;;3.33;;
6614;SDS011;3343;42.896;23.912;2023-05-06T09:37:24;4.45;;;3.33;;
6614;SDS011;3343;42.896;23.912;2023-05-06T09:39:52;4.93;;;3.20;;
6614;SDS011;3343;42.896;23.912;2023-05-06T09:42:22;5.25;;;3.15;;
6614;SDS011;3343;42.896;23.912;2023-05-06T09:44:51;4.75;;;3.60;;
6614;SDS011;3343;42.896;23.912;2023-05-06T09:47:20;4.38;;;2.95;;
6614;SDS011;3343;42.896;23.912;2023-05-06T09:49:47;4.47;;;3.30;;
6614;SDS011;3343;42.896;23.912;2023-05-06T09:52:14;3.45;;;2.80;;
6614;SDS011;3343;42.896;23.912;2023-05-06T09:54:42;5.93;;;3.80;;
6614;SDS011;3343;42.896;23.912;2023-05-06T09:57:10;10.00;;;3.38;;
6614;SDS011;3343;42.896;23.912;2023-05-06T09:59:42;3.13;;;2.80;;
6614;SDS011;3343;42.896;23.912;2023-05-06T10:02:10;4.53;;;2.40;;
6614;SDS011;3343;42.896;23.912;2023-05-06T10:04:37;5.97;;;2.67;;
6614;SDS011;3343;42.896;23.912;2023-05-06T10:07:07;3.00;;;2.70;;
6614;SDS011;3343;42.896;23.912;2023-05-06T10:09:36;4.75;;;2.90;;
6614;SDS011;3343;42.896;23.912;2023-05-06T10:12:05;4.00;;;2.50;;
6614;SDS011;3343;42.896;23.912;2023-05-06T10:14:32;3.38;;;2.70;;
6614;SDS011;3343;42.896;23.912;2023-05-06T10:17:01;4.50;;;3.03;;
6614;SDS011;3343;42.896;23.912;2023-05-06T10:19:31;4.57;;;2.67;;
6614;SDS011;3343;42.896;23.912;2023-05-06T10:22:00;6.32;;;3.13;;
6614;SDS011;3343;42.896;23.912;2023-05-06T10:24:35;3.67;;;2.63;;
6614;SDS011;3343;42.896;23.912;2023-05-06T10:27:09;5.00;;;2.88;;
6614;SDS011;3343;42.896;23.912;2023-05-06T10:29:37;3.83;;;2.63;;
6614;SDS011;3343;42.896;23.912;2023-05-06T10:32:07;3.23;;;2.60;;
6614;SDS011;3343;42.896;23.912;2023-05-06T10:34:37;4.97;;;2.70;;
6614;SDS011;3343;42.896;23.912;2023-05-06T10:37:12;5.70;;;3.00;;
6614;SDS011;3343;42.896;23.912;2023-05-06T10:39:40;5.10;;;3.20;;
6614;SDS011;3343;42.896;23.912;2023-05-06T10:42:08;5.40;;;2.65;;
6614;SDS011;3343;42.896;23.912;2023-05-06T10:47:22;3.58;;;2.47;;
6614;SDS011;3343;42.896;23.912;2023-05-06T10:52:48;2.92;;;2.55;;
6614;SDS011;3343;42.896;23.912;2023-05-06T10:55:27;3.28;;;2.63;;
6614;SDS011;3343;42.896;23.912;2023-05-06T10:57:59;3.55;;;2.75;;
6614;SDS011;3343;42.896;23.912;2023-05-06T11:00:29;5.55;;;3.00;;
6614;SDS011;3343;42.896;23.912;2023-05-06T11:03:01;3.75;;;2.50;;
6614;SDS011;3343;42.896;23.912;2023-05-06T11:05:31;3.90;;;2.60;;
6614;SDS011;3343;42.896;23.912;2023-05-06T11:08:07;4.22;;;2.65;;
6614;SDS011;3343;42.896;23.912;2023-05-06T11:10:35;3.05;;;2.42;;
6614;SDS011;3343;42.896;23.912;2023-05-06T11:13:16;3.38;;;2.83;;
6614;SDS011;3343;42.896;23.912;2023-05-06T11:15:45;3.22;;;2.55;;
6614;SDS011;3343;42.896;23.912;2023-05-06T11:24:05;3.50;;;2.58;;
6614;SDS011;3343;42.896;23.912;2023-05-06T11:26:33;3.20;;;2.60;;
6614;SDS011;3343;42.896;23.912;2023-05-06T11:29:00;6.55;;;2.72;;
6614;SDS011;3343;42.896;23.912;2023-05-06T11:31:28;3.38;;;2.50;;
6614;SDS011;3343;42.896;23.912;2023-05-06T11:34:02;2.78;;;2.42;;
6614;SDS011;3343;42.896;23.912;2023-05-06T11:36:33;2.65;;;2.20;;
6614;SDS011;3343;42.896;23.912;2023-05-06T11:39:04;3.53;;;2.55;;
6614;SDS011;3343;42.896;23.912;2023-05-06T11:41:31;2.75;;;2.08;;
6614;SDS011;3343;42.896;23.912;2023-05-06T11:43:59;3.78;;;2.70;;
6614;SDS011;3343;42.896;23.912;2023-05-06T11:46:28;2.60;;;2.40;;
6614;SDS011;3343;42.896;23.912;2023-05-06T11:48:59;3.10;;;2.50;;
6614;SDS011;3343;42.896;23.912;2023-05-06T11:51:27;3.65;;;2.30;;
6614;SDS011;3343;42.896;23.912;2023-05-06T11:54:02;2.53;;;2.27;;
6614;SDS011;3343;42.896;23.912;2023-05-06T11:56:41;6.30;;;3.30;;
6614;SDS011;3343;42.896;23.912;2023-05-06T11:59:11;5.33;;;3.37;;
6614;SDS011;3343;42.896;23.912;2023-05-06T12:01:42;6.07;;;3.10;;
6614;SDS011;3343;42.896;23.912;2023-05-06T12:04:09;3.07;;;2.40;;
6614;SDS011;3343;42.896;23.912;2023-05-06T12:06:38;6.88;;;2.72;;
6614;SDS011;3343;42.896;23.912;2023-05-06T12:09:05;4.15;;;2.58;;
6614;SDS011;3343;42.896;23.912;2023-05-06T12:11:34;3.53;;;2.60;;
6614;SDS011;3343;42.896;23.912;2023-05-06T12:14:03;4.93;;;3.03;;
6614;SDS011;3343;42.896;23.912;2023-05-06T12:16:32;4.70;;;2.58;;
6614;SDS011;3343;42.896;23.912;2023-05-06T12:19:00;5.85;;;3.20;;
6614;SDS011;3343;42.896;23.912;2023-05-06T12:21:27;5.27;;;2.53;;
6614;SDS011;3343;42.896;23.912;2023-05-06T12:23:56;2.70;;;2.50;;
6614;SDS011;3343;42.896;23.912;2023-05-06T12:26:24;2.47;;;2.05;;
6614;SDS011;3343;42.896;23.912;2023-05-06T12:29:05;3.13;;;2.28;;
6614;SDS011;3343;42.896;23.912;2023-05-06T12:31:34;3.50;;;2.42;;
6614;SDS011;3343;42.896;23.912;2023-05-06T12:34:01;2.63;;;2.13;;
6614;SDS011;3343;42.896;23.912;2023-05-06T12:36:29;4.53;;;2.10;;
6614;SDS011;3343;42.896;23.912;2023-05-06T12:38:58;4.65;;;2.10;;
